createdAt,value
2018-06-04T00:00:11.558Z,66.54
2018-06-04T00:01:14.954Z,66.39
2018-06-04T00:02:18.417Z,66.31
2018-06-04T00:03:21.825Z,66.51
2018-06-04T00:04:25.243Z,66.26
2018-06-04T00:05:28.662Z,66.41
2018-06-04T00:06:32.050Z,66.37
2018-06-04T00:07:35.446Z,66.37
2018-06-04T00:08:38.920Z,65.91
2018-06-04T00:09:42.343Z,66.57
2018-06-04T00:10:45.730Z,66.27
2018-06-04T00:11:49.155Z,66.33
2018-06-04T00:12:52.568Z,66.27
2018-06-04T00:13:55.985Z,66.38
2018-06-04T00:14:59.406Z,66.19
2018-06-04T00:16:02.850Z,66.22
2018-06-04T00:17:06.243Z,66.39
2018-06-04T00:18:09.678Z,66.31
2018-06-04T00:19:13.096Z,66.33
2018-06-04T00:20:16.512Z,66.29
2018-06-04T00:21:19.920Z,67.08
2018-06-04T00:22:23.335Z,66.63
2018-06-04T00:23:26.733Z,66.63
2018-06-04T00:24:30.157Z,66.69
2018-06-04T00:25:33.602Z,67.08
2018-06-04T00:26:37.120Z,67.24
2018-06-04T00:27:40.520Z,67.09
2018-06-04T00:28:43.921Z,67.41
2018-06-04T00:29:47.352Z,67.41
2018-06-04T00:30:50.786Z,66.83
2018-06-04T00:31:54.195Z,66.85
2018-06-04T00:32:57.614Z,67.41
2018-06-04T00:34:01.049Z,66.99
2018-06-04T00:35:04.485Z,67.06
2018-06-04T00:36:07.889Z,66.46
2018-06-04T00:37:11.304Z,67.05
2018-06-04T00:38:14.708Z,67.25
2018-06-04T00:39:18.129Z,67.29
2018-06-04T00:40:21.560Z,67.08
2018-06-04T00:41:24.943Z,67.09
2018-06-04T00:42:28.424Z,66.85
2018-06-04T00:43:31.847Z,67.26
2018-06-04T00:44:35.265Z,67.11
2018-06-04T00:45:38.693Z,66.94
2018-06-04T00:46:42.133Z,66.77
2018-06-04T00:47:45.548Z,66.87
2018-06-04T00:48:48.949Z,66.95
2018-06-04T00:49:52.349Z,67.02
2018-06-04T00:50:55.765Z,66.81
2018-06-04T00:51:59.162Z,66.64
2018-06-04T00:53:02.548Z,67.26
2018-06-04T00:54:05.991Z,66.98
2018-06-04T00:55:09.391Z,67.02
2018-06-04T00:56:19.578Z,66.83
2018-06-04T00:57:22.975Z,67.18
2018-06-04T00:58:26.362Z,66.81
2018-06-04T00:59:29.780Z,67.04
2018-06-04T01:00:33.998Z,66.75
2018-06-04T01:01:37.425Z,66.79
2018-06-04T01:02:40.802Z,66.87
2018-06-04T01:03:44.200Z,66.81
2018-06-04T01:04:47.612Z,66.89
2018-06-04T01:05:51.019Z,66.84
2018-06-04T01:06:54.430Z,67.00
2018-06-04T01:07:57.818Z,67.01
2018-06-04T01:09:01.199Z,67.12
2018-06-04T01:10:04.651Z,66.65
2018-06-04T01:11:09.030Z,67.00
2018-06-04T01:12:12.454Z,66.62
2018-06-04T01:13:15.836Z,66.93
2018-06-04T01:14:19.255Z,66.58
2018-06-04T01:15:22.644Z,67.05
2018-06-04T01:16:26.036Z,66.72
2018-06-04T01:17:29.441Z,66.84
2018-06-04T01:18:32.808Z,66.66
2018-06-04T01:19:36.188Z,66.88
2018-06-04T01:20:39.582Z,66.83
2018-06-04T01:21:42.992Z,67.10
2018-06-04T01:22:46.404Z,66.70
2018-06-04T01:23:49.833Z,66.77
2018-06-04T01:24:53.222Z,67.06
2018-06-04T01:25:56.659Z,67.27
2018-06-04T01:27:00.043Z,67.03
2018-06-04T01:28:03.495Z,67.24
2018-06-04T01:29:06.890Z,67.23
2018-06-04T01:30:10.284Z,67.24
2018-06-04T01:31:13.672Z,66.97
2018-06-04T01:32:17.093Z,67.20
2018-06-04T01:33:20.552Z,67.11
2018-06-04T01:34:23.968Z,67.10
2018-06-04T01:35:27.605Z,67.26
2018-06-04T01:36:31.016Z,67.24
2018-06-04T01:37:34.429Z,67.37
2018-06-04T01:38:37.835Z,67.11
2018-06-04T01:39:41.254Z,67.43
2018-06-04T01:40:44.650Z,67.58
2018-06-04T01:41:48.028Z,67.79
2018-06-04T01:42:51.414Z,67.62
2018-06-04T01:43:54.851Z,67.45
2018-06-04T01:44:58.269Z,67.71
2018-06-04T01:46:01.657Z,67.82
2018-06-04T01:47:05.136Z,67.93
2018-06-04T01:48:08.561Z,67.98
2018-06-04T01:49:11.975Z,67.82
2018-06-04T01:50:15.380Z,67.81
2018-06-04T01:51:18.794Z,67.99
2018-06-04T01:52:22.184Z,68.07
2018-06-04T01:53:25.585Z,67.66
2018-06-04T01:54:29.002Z,67.79
2018-06-04T01:55:32.424Z,67.87
2018-06-04T01:56:35.847Z,67.73
2018-06-04T01:57:39.338Z,68.04
2018-06-04T01:58:42.760Z,67.78
2018-06-04T01:59:46.146Z,68.03
2018-06-04T02:00:49.556Z,67.84
2018-06-04T02:01:53.237Z,67.85
2018-06-04T02:02:56.648Z,67.88
2018-06-04T02:04:00.043Z,67.96
2018-06-04T02:05:03.483Z,67.88
2018-06-04T02:06:06.931Z,67.83
2018-06-04T02:07:10.339Z,68.19
2018-06-04T02:08:13.722Z,68.15
2018-06-04T02:09:17.123Z,68.03
2018-06-04T02:10:20.540Z,67.81
2018-06-04T02:11:23.925Z,68.03
2018-06-04T02:12:27.310Z,67.80
2018-06-04T02:13:30.688Z,68.39
2018-06-04T02:14:34.102Z,68.51
2018-06-04T02:15:37.525Z,68.51
2018-06-04T02:16:40.951Z,68.37
2018-06-04T02:17:44.362Z,68.67
2018-06-04T02:18:47.763Z,68.55
2018-06-04T02:19:51.167Z,68.45
2018-06-04T02:20:54.556Z,68.74
2018-06-04T02:21:57.964Z,68.31
2018-06-04T02:23:01.346Z,68.40
2018-06-04T02:24:04.777Z,68.26
2018-06-04T02:25:08.178Z,68.39
2018-06-04T02:26:11.602Z,68.66
2018-06-04T02:27:15.027Z,68.74
2018-06-04T02:28:18.472Z,68.48
2018-06-04T02:29:21.883Z,68.24
2018-06-04T02:30:25.297Z,68.41
2018-06-04T02:31:28.679Z,68.16
2018-06-04T02:32:32.101Z,68.24
2018-06-04T02:33:35.532Z,68.24
2018-06-04T02:34:38.933Z,67.90
2018-06-04T02:35:42.330Z,68.04
2018-06-04T02:36:45.747Z,67.95
2018-06-04T02:37:49.159Z,68.22
2018-06-04T02:38:52.535Z,68.19
2018-06-04T02:39:55.943Z,68.09
2018-06-04T02:40:59.358Z,68.07
2018-06-04T02:42:02.785Z,67.83
2018-06-04T02:43:06.346Z,68.10
2018-06-04T02:44:09.727Z,68.20
2018-06-04T02:45:13.105Z,67.89
2018-06-04T02:46:16.535Z,68.03
2018-06-04T02:47:19.952Z,68.04
2018-06-04T02:48:23.326Z,67.71
2018-06-04T02:49:26.743Z,67.86
2018-06-04T02:50:30.161Z,68.27
2018-06-04T02:51:33.602Z,68.15
2018-06-04T02:52:36.994Z,67.97
2018-06-04T02:53:40.997Z,68.04
2018-06-04T02:54:44.372Z,67.89
2018-06-04T02:55:47.775Z,68.31
2018-06-04T02:56:51.207Z,68.04
2018-06-04T02:57:54.595Z,68.06
2018-06-04T02:58:57.987Z,67.96
2018-06-04T03:00:01.371Z,68.12
2018-06-04T03:01:04.793Z,67.97
2018-06-04T03:02:08.238Z,68.06
2018-06-04T03:03:11.654Z,68.10
2018-06-04T03:04:15.042Z,68.01
2018-06-04T03:05:18.431Z,68.15
2018-06-04T03:06:21.817Z,68.21
2018-06-04T03:07:25.285Z,68.10
2018-06-04T03:08:28.726Z,68.20
2018-06-04T03:09:32.180Z,68.21
2018-06-04T03:10:35.621Z,68.19
2018-06-04T03:11:39.023Z,68.37
2018-06-04T03:12:42.450Z,68.20
2018-06-04T03:13:45.868Z,68.30
2018-06-04T03:14:49.291Z,68.21
2018-06-04T03:15:52.703Z,68.35
2018-06-04T03:16:56.171Z,68.53
2018-06-04T03:17:59.578Z,68.00
2018-06-04T03:19:02.976Z,68.58
2018-06-04T03:20:06.390Z,68.35
2018-06-04T03:21:09.816Z,68.47
2018-06-04T03:22:13.225Z,68.58
2018-06-04T03:23:16.651Z,68.69
2018-06-04T03:24:20.051Z,68.79
2018-06-04T03:25:23.461Z,68.67
2018-06-04T03:26:26.867Z,68.65
2018-06-04T03:27:30.278Z,68.69
2018-06-04T03:28:33.698Z,68.71
2018-06-04T03:29:37.108Z,68.80
2018-06-04T03:30:40.505Z,68.75
2018-06-04T03:31:43.915Z,68.88
2018-06-04T03:32:47.335Z,68.83
2018-06-04T03:33:50.750Z,68.81
2018-06-04T03:34:54.221Z,68.85
2018-06-04T03:35:57.683Z,68.90
2018-06-04T03:37:01.099Z,69.04
2018-06-04T03:38:04.873Z,68.92
2018-06-04T03:39:08.974Z,68.99
2018-06-04T03:40:12.388Z,69.02
2018-06-04T03:41:15.804Z,69.12
2018-06-04T03:42:19.193Z,69.24
2018-06-04T03:43:22.616Z,69.19
2018-06-04T03:44:26.040Z,68.83
2018-06-04T03:45:29.437Z,68.90
2018-06-04T03:46:32.859Z,69.22
2018-06-04T03:47:36.248Z,68.87
2018-06-04T03:48:39.664Z,68.75
2018-06-04T03:49:43.084Z,69.08
2018-06-04T03:50:46.472Z,68.90
2018-06-04T03:51:49.865Z,69.05
2018-06-04T03:52:53.276Z,68.81
2018-06-04T03:53:56.696Z,69.06
2018-06-04T03:55:00.112Z,68.93
2018-06-04T03:56:03.510Z,68.99
2018-06-04T03:57:06.976Z,69.19
2018-06-04T03:58:10.364Z,69.22
2018-06-04T03:59:13.797Z,69.22
2018-06-04T04:00:17.196Z,68.81
2018-06-04T04:01:20.583Z,69.52
2018-06-04T04:02:23.985Z,69.39
2018-06-04T04:03:27.373Z,69.15
2018-06-04T04:04:30.802Z,69.24
2018-06-04T04:05:34.271Z,69.23
2018-06-04T04:06:37.804Z,69.35
2018-06-04T04:07:41.284Z,69.33
2018-06-04T04:08:44.687Z,69.32
2018-06-04T04:09:48.123Z,69.46
2018-06-04T04:10:51.529Z,69.52
2018-06-04T04:11:54.940Z,68.97
2018-06-04T04:12:58.341Z,69.43
2018-06-04T04:14:01.793Z,69.43
2018-06-04T04:15:05.184Z,69.32
2018-06-04T04:16:08.588Z,69.20
2018-06-04T04:17:11.985Z,69.37
2018-06-04T04:18:15.389Z,69.33
2018-06-04T04:19:18.811Z,69.08
2018-06-04T04:20:22.250Z,69.67
2018-06-04T04:21:26.002Z,69.25
2018-06-04T04:22:29.441Z,68.65
2018-06-04T04:23:32.845Z,69.13
2018-06-04T04:24:36.234Z,69.08
2018-06-04T04:25:39.661Z,69.02
2018-06-04T04:26:43.112Z,69.03
2018-06-04T04:27:46.541Z,68.97
2018-06-04T04:28:49.968Z,69.34
2018-06-04T04:29:53.416Z,69.19
2018-06-04T04:30:56.814Z,69.29
2018-06-04T04:32:00.197Z,69.26
2018-06-04T04:33:03.599Z,69.15
2018-06-04T04:34:07.034Z,69.09
2018-06-04T04:35:10.463Z,69.16
2018-06-04T04:36:13.887Z,68.95
2018-06-04T04:37:17.267Z,69.21
2018-06-04T04:38:20.663Z,69.15
2018-06-04T04:39:24.043Z,69.27
2018-06-04T04:40:27.448Z,69.34
2018-06-04T04:41:30.855Z,69.12
2018-06-04T04:42:34.263Z,69.15
2018-06-04T04:43:37.652Z,69.21
2018-06-04T04:44:41.064Z,69.25
2018-06-04T04:45:44.460Z,69.05
2018-06-04T04:46:47.867Z,69.09
2018-06-04T04:47:51.345Z,69.09
2018-06-04T04:48:54.745Z,69.33
2018-06-04T04:49:58.163Z,69.24
2018-06-04T04:51:01.601Z,69.10
2018-06-04T04:52:05.036Z,69.08
2018-06-04T04:53:08.443Z,69.15
2018-06-04T04:54:11.875Z,69.38
2018-06-04T04:55:15.288Z,69.37
2018-06-04T04:56:19.267Z,69.39
2018-06-04T04:57:22.680Z,69.22
2018-06-04T04:58:26.068Z,69.22
2018-06-04T04:59:29.484Z,69.54
2018-06-04T05:00:32.897Z,69.17
2018-06-04T05:01:36.294Z,69.46
2018-06-04T05:02:39.723Z,69.51
2018-06-04T05:03:43.131Z,69.59
2018-06-04T05:04:46.518Z,69.26
2018-06-04T05:05:49.905Z,69.31
2018-06-04T05:06:53.306Z,69.29
2018-06-04T05:07:56.717Z,69.16
2018-06-04T05:09:00.107Z,69.22
2018-06-04T05:10:03.790Z,69.00
2018-06-04T05:11:07.186Z,69.08
2018-06-04T05:12:10.577Z,69.35
2018-06-04T05:13:13.994Z,69.24
2018-06-04T05:14:17.388Z,69.38
2018-06-04T05:15:20.952Z,69.15
2018-06-04T05:16:24.357Z,69.14
2018-06-04T05:17:27.768Z,69.12
2018-06-04T05:18:31.191Z,69.10
2018-06-04T05:19:34.628Z,67.60
2018-06-04T05:20:38.037Z,64.89
2018-06-04T05:21:41.444Z,63.26
2018-06-04T05:22:45.108Z,60.95
2018-06-04T05:23:48.616Z,60.66
2018-06-04T05:24:52.054Z,60.34
2018-06-04T05:25:55.477Z,60.17
2018-06-04T05:26:58.874Z,59.90
2018-06-04T05:28:02.294Z,59.97
2018-06-04T05:29:05.956Z,60.33
2018-06-04T05:30:09.355Z,60.44
2018-06-04T05:31:12.794Z,60.52
2018-06-04T05:32:16.258Z,60.94
2018-06-04T05:33:20.013Z,61.01
2018-06-04T05:34:23.444Z,61.11
2018-06-04T05:35:26.943Z,61.59
2018-06-04T05:36:30.341Z,61.54
2018-06-04T05:37:33.792Z,61.52
2018-06-04T05:38:37.178Z,61.80
2018-06-04T05:39:40.601Z,61.38
2018-06-04T05:40:44.047Z,61.46
2018-06-04T05:41:47.433Z,61.60
2018-06-04T05:42:50.861Z,61.97
2018-06-04T05:43:54.260Z,62.08
2018-06-04T05:44:57.673Z,61.38
2018-06-04T05:46:01.059Z,61.40
2018-06-04T05:47:04.535Z,61.27
2018-06-04T05:48:07.955Z,61.14
2018-06-04T05:49:11.335Z,61.15
2018-06-04T05:50:14.767Z,61.19
2018-06-04T05:51:19.353Z,61.13
2018-06-04T05:52:23.947Z,61.02
2018-06-04T05:53:28.451Z,60.37
2018-06-04T05:54:33.047Z,60.69
2018-06-04T05:55:37.502Z,60.82
2018-06-04T05:56:40.931Z,61.42
2018-06-04T05:57:44.351Z,60.93
2018-06-04T05:58:47.816Z,61.23
2018-06-04T05:59:51.208Z,61.21
2018-06-04T06:00:54.634Z,61.46
2018-06-04T06:01:58.068Z,61.65
2018-06-04T06:03:01.479Z,61.20
2018-06-04T06:04:05.124Z,61.38
2018-06-04T06:05:08.523Z,61.31
2018-06-04T06:06:11.989Z,61.08
2018-06-04T06:07:15.408Z,61.32
2018-06-04T06:08:18.790Z,61.71
2018-06-04T06:09:22.215Z,61.35
2018-06-04T06:10:25.659Z,61.51
2018-06-04T06:11:29.140Z,61.29
2018-06-04T06:12:32.545Z,61.46
2018-06-04T06:13:35.981Z,61.41
2018-06-04T06:14:39.385Z,61.38
2018-06-04T06:15:42.807Z,61.29
2018-06-04T06:16:46.197Z,61.55
2018-06-04T06:17:49.683Z,61.76
2018-06-04T06:18:53.066Z,61.70
2018-06-04T06:19:56.461Z,62.14
2018-06-04T06:21:00.049Z,62.18
2018-06-04T06:22:03.637Z,62.17
2018-06-04T06:23:07.375Z,62.15
2018-06-04T06:24:11.105Z,61.79
2018-06-04T06:25:14.559Z,61.73
2018-06-04T06:26:18.343Z,61.66
2018-06-04T06:27:21.845Z,62.01
2018-06-04T06:28:25.271Z,62.12
2018-06-04T06:29:28.821Z,61.82
2018-06-04T06:30:32.255Z,61.81
2018-06-04T06:31:35.825Z,61.92
2018-06-04T06:32:39.287Z,61.89
2018-06-04T06:33:42.919Z,61.87
2018-06-04T06:34:47.025Z,62.00
2018-06-04T06:35:50.464Z,61.67
2018-06-04T06:36:53.916Z,61.74
2018-06-04T06:37:57.340Z,61.83
2018-06-04T06:39:00.790Z,61.80
2018-06-04T06:40:04.282Z,61.45
2018-06-04T06:41:07.724Z,61.55
2018-06-04T06:42:11.228Z,61.55
2018-06-04T06:43:14.658Z,61.68
2018-06-04T06:44:18.133Z,61.59
2018-06-04T06:45:21.660Z,61.57
2018-06-04T06:46:25.131Z,61.32
2018-06-04T06:47:28.629Z,61.44
2018-06-04T06:48:32.208Z,61.43
2018-06-04T06:49:35.626Z,61.54
2018-06-04T06:50:39.055Z,61.26
2018-06-04T06:51:42.520Z,61.46
2018-06-04T06:52:46.041Z,61.42
2018-06-04T06:53:49.463Z,61.36
2018-06-04T06:54:52.933Z,61.71
2018-06-04T06:55:56.391Z,61.61
2018-06-04T06:56:59.830Z,61.26
2018-06-04T06:58:03.617Z,61.53
2018-06-04T06:59:07.470Z,61.79
2018-06-04T07:00:10.939Z,61.56
2018-06-04T07:01:14.600Z,61.61
2018-06-04T07:02:18.145Z,61.53
2018-06-04T07:03:21.769Z,61.57
2018-06-04T07:04:25.178Z,61.53
2018-06-04T07:05:28.778Z,61.50
2018-06-04T07:06:32.284Z,61.64
2018-06-04T07:07:35.730Z,61.53
2018-06-04T07:08:39.204Z,61.60
2018-06-04T07:09:42.653Z,61.77
2018-06-04T07:10:46.105Z,61.43
2018-06-04T07:11:49.606Z,61.75
2018-06-04T07:12:53.143Z,61.89
2018-06-04T07:13:56.782Z,61.82
2018-06-04T07:15:00.231Z,61.80
2018-06-04T07:16:03.779Z,61.75
2018-06-04T07:17:07.219Z,61.95
2018-06-04T07:18:10.722Z,61.69
2018-06-04T07:19:14.204Z,61.88
2018-06-04T07:20:17.939Z,61.82
2018-06-04T07:21:21.536Z,61.87
2018-06-04T07:22:25.158Z,62.07
2018-06-04T07:23:28.762Z,61.90
2018-06-04T07:24:32.384Z,61.80
2018-06-04T07:25:35.849Z,61.83
2018-06-04T07:26:39.528Z,62.05
2018-06-04T07:27:42.957Z,61.95
2018-06-04T07:28:46.350Z,61.73
2018-06-04T07:29:49.793Z,62.06
2018-06-04T07:30:53.263Z,62.09
2018-06-04T07:31:56.906Z,61.96
2018-06-04T07:33:00.559Z,61.86
2018-06-04T07:34:04.034Z,62.11
2018-06-04T07:35:07.712Z,62.08
2018-06-04T07:36:12.059Z,62.02
2018-06-04T07:37:15.605Z,62.10
2018-06-04T07:38:19.183Z,62.16
2018-06-04T07:39:22.981Z,62.25
2018-06-04T07:40:26.382Z,62.30
2018-06-04T07:41:29.806Z,61.99
2018-06-04T07:42:33.234Z,62.31
2018-06-04T07:43:36.747Z,62.01
2018-06-04T07:44:40.135Z,62.30
2018-06-04T07:45:43.605Z,62.46
2018-06-04T07:46:47.076Z,62.00
2018-06-04T07:47:50.522Z,62.30
2018-06-04T07:48:53.953Z,62.25
2018-06-04T07:49:57.475Z,62.24
2018-06-04T07:51:00.941Z,62.25
2018-06-04T07:52:04.389Z,62.23
2018-06-04T07:53:08.331Z,62.06
2018-06-04T07:54:12.163Z,62.06
2018-06-04T07:55:15.598Z,62.29
2018-06-04T07:56:19.091Z,62.40
2018-06-04T07:57:22.542Z,62.39
2018-06-04T07:58:25.977Z,62.32
2018-06-04T07:59:29.358Z,62.15
2018-06-04T08:00:32.765Z,62.33
2018-06-04T08:01:36.169Z,62.51
2018-06-04T08:02:39.604Z,62.37
2018-06-04T08:03:43.061Z,62.37
2018-06-04T08:04:46.564Z,62.34
2018-06-04T08:05:50.408Z,62.17
2018-06-04T08:06:54.478Z,62.20
2018-06-04T08:07:58.270Z,62.40
2018-06-04T08:09:01.931Z,62.58
2018-06-04T08:10:05.795Z,62.41
2018-06-04T08:11:09.354Z,62.51
2018-06-04T08:12:12.860Z,62.50
2018-06-04T08:13:16.536Z,62.54
2018-06-04T08:14:20.150Z,62.10
2018-06-04T08:15:24.206Z,62.11
2018-06-04T08:16:27.831Z,62.26
2018-06-04T08:17:31.358Z,62.43
2018-06-04T08:18:34.988Z,62.32
2018-06-04T08:19:38.662Z,62.32
2018-06-04T08:20:42.118Z,62.39
2018-06-04T08:21:45.624Z,62.42
2018-06-04T08:22:49.068Z,62.51
2018-06-04T08:23:52.666Z,62.51
2018-06-04T08:24:56.150Z,62.36
2018-06-04T08:25:59.652Z,62.37
2018-06-04T08:27:03.337Z,62.42
2018-06-04T08:28:06.803Z,62.47
2018-06-04T08:29:10.318Z,62.10
2018-06-04T08:30:13.766Z,62.38
2018-06-04T08:31:17.264Z,62.18
2018-06-04T08:32:20.684Z,62.29
2018-06-04T08:33:24.140Z,62.46
2018-06-04T08:34:27.613Z,62.31
2018-06-04T08:35:31.258Z,62.49
2018-06-04T08:36:34.689Z,62.53
2018-06-04T08:37:38.125Z,62.27
2018-06-04T08:38:41.688Z,62.24
2018-06-04T08:39:45.238Z,62.50
2018-06-04T08:40:48.745Z,62.05
2018-06-04T08:41:52.222Z,62.26
2018-06-04T08:42:55.806Z,62.29
2018-06-04T08:43:59.633Z,62.41
2018-06-04T08:45:03.228Z,62.09
2018-06-04T08:46:06.720Z,62.33
2018-06-04T08:47:10.177Z,62.15
2018-06-04T08:48:13.796Z,62.18
2018-06-04T08:49:17.276Z,62.37
2018-06-04T08:50:20.867Z,62.39
2018-06-04T08:51:24.444Z,62.26
2018-06-04T08:52:28.056Z,62.21
2018-06-04T08:53:31.643Z,62.30
2018-06-04T08:54:35.141Z,62.51
2018-06-04T08:55:38.647Z,62.29
2018-06-04T08:56:42.242Z,62.15
2018-06-04T08:57:45.771Z,62.37
2018-06-04T08:58:49.389Z,62.36
2018-06-04T08:59:53.063Z,62.22
2018-06-04T09:00:56.681Z,62.24
2018-06-04T09:02:00.199Z,62.33
2018-06-04T09:03:03.845Z,62.30
2018-06-04T09:04:07.354Z,62.10
2018-06-04T09:05:10.955Z,62.24
2018-06-04T09:06:14.593Z,62.25
2018-06-04T09:07:18.044Z,62.35
2018-06-04T09:08:21.697Z,62.29
2018-06-04T09:09:25.382Z,62.23
2018-06-04T09:10:29.058Z,62.35
2018-06-04T09:11:32.556Z,62.27
2018-06-04T09:12:35.965Z,62.03
2018-06-04T09:13:39.506Z,62.30
2018-06-04T09:14:43.320Z,62.14
2018-06-04T09:15:46.937Z,62.27
2018-06-04T09:16:50.333Z,62.46
2018-06-04T09:17:53.784Z,62.39
2018-06-04T09:18:57.329Z,62.03
2018-06-04T09:20:01.211Z,62.01
2018-06-04T09:21:04.708Z,62.33
2018-06-04T09:22:08.212Z,62.35
2018-06-04T09:23:11.859Z,62.23
2018-06-04T09:24:15.239Z,62.20
2018-06-04T09:25:18.705Z,62.20
2018-06-04T09:26:22.138Z,62.28
2018-06-04T09:27:25.648Z,62.21
2018-06-04T09:28:29.255Z,62.15
2018-06-04T09:29:32.730Z,62.07
2018-06-04T09:30:36.369Z,61.97
2018-06-04T09:31:39.941Z,62.25
2018-06-04T09:32:43.433Z,61.93
2018-06-04T09:33:47.001Z,61.95
2018-06-04T09:34:50.677Z,61.79
2018-06-04T09:35:54.105Z,61.84
2018-06-04T09:36:57.710Z,61.96
2018-06-04T09:38:01.145Z,61.82
2018-06-04T09:39:06.584Z,61.80
2018-06-04T09:40:10.141Z,61.89
2018-06-04T09:41:13.762Z,62.24
2018-06-04T09:42:17.324Z,62.35
2018-06-04T09:43:20.811Z,62.36
2018-06-04T09:44:24.403Z,62.65
2018-06-04T09:45:27.934Z,62.34
2018-06-04T09:46:31.518Z,62.40
2018-06-04T09:47:35.154Z,62.39
2018-06-04T09:48:38.641Z,62.50
2018-06-04T09:49:42.089Z,62.09
2018-06-04T09:50:45.663Z,62.23
2018-06-04T09:51:49.089Z,62.24
2018-06-04T09:52:52.986Z,62.23
2018-06-04T09:53:56.553Z,62.12
2018-06-04T09:55:00.169Z,62.30
2018-06-04T09:56:03.746Z,62.23
2018-06-04T09:57:07.279Z,62.13
2018-06-04T09:58:10.981Z,62.33
2018-06-04T09:59:14.640Z,62.58
2018-06-04T10:00:23.446Z,62.23
2018-06-04T10:01:26.853Z,62.12
2018-06-04T10:02:30.311Z,62.18
2018-06-04T10:03:33.968Z,62.25
2018-06-04T10:04:37.374Z,62.23
2018-06-04T10:05:40.919Z,62.05
2018-06-04T10:06:44.418Z,62.29
2018-06-04T10:07:48.048Z,62.29
2018-06-04T10:08:51.541Z,61.84
2018-06-04T10:09:54.930Z,62.02
2018-06-04T10:10:58.362Z,62.28
2018-06-04T10:12:01.761Z,62.03
2018-06-04T10:13:05.253Z,62.08
2018-06-04T10:14:08.753Z,62.09
2018-06-04T10:15:12.291Z,61.97
2018-06-04T10:16:15.809Z,61.91
2018-06-04T10:17:19.357Z,61.83
2018-06-04T10:18:22.827Z,61.64
2018-06-04T10:19:26.287Z,62.04
2018-06-04T10:20:30.222Z,61.84
2018-06-04T10:21:33.762Z,62.08
2018-06-04T10:22:37.343Z,61.88
2018-06-04T10:23:40.964Z,61.89
2018-06-04T10:24:44.473Z,62.02
2018-06-04T10:25:48.023Z,61.73
2018-06-04T10:26:51.712Z,61.92
2018-06-04T10:27:55.447Z,61.94
2018-06-04T10:28:58.937Z,61.90
2018-06-04T10:30:02.545Z,61.77
2018-06-04T10:31:06.014Z,61.72
2018-06-04T10:32:09.489Z,61.86
2018-06-04T10:33:12.879Z,61.67
2018-06-04T10:34:16.482Z,61.86
2018-06-04T10:35:19.926Z,61.97
2018-06-04T10:36:23.396Z,61.63
2018-06-04T10:37:26.824Z,61.65
2018-06-04T10:38:30.508Z,61.96
2018-06-04T10:39:34.063Z,61.85
2018-06-04T10:40:37.594Z,61.78
2018-06-04T10:41:41.167Z,61.96
2018-06-04T10:42:44.738Z,61.92
2018-06-04T10:43:48.226Z,61.73
2018-06-04T10:44:51.669Z,61.94
2018-06-04T10:45:55.203Z,61.72
2018-06-04T10:46:58.603Z,61.89
2018-06-04T10:48:02.019Z,61.70
2018-06-04T10:49:05.469Z,61.83
2018-06-04T10:50:08.984Z,61.62
2018-06-04T10:51:12.413Z,61.77
2018-06-04T10:52:15.839Z,61.87
2018-06-04T10:53:19.237Z,61.85
2018-06-04T10:54:22.641Z,61.40
2018-06-04T10:55:26.064Z,61.62
2018-06-04T10:56:29.551Z,61.41
2018-06-04T10:57:32.989Z,61.61
2018-06-04T10:58:36.395Z,61.25
2018-06-04T10:59:39.806Z,61.46
2018-06-04T11:00:43.210Z,61.35
2018-06-04T11:01:46.639Z,61.08
2018-06-04T11:02:50.063Z,61.25
2018-06-04T11:03:53.456Z,61.41
2018-06-04T11:04:56.996Z,61.40
2018-06-04T11:06:00.340Z,61.41
2018-06-04T11:07:03.828Z,61.46
2018-06-04T11:08:07.485Z,61.00
2018-06-04T11:09:10.889Z,61.34
2018-06-04T11:10:14.312Z,61.20
2018-06-04T11:11:17.782Z,61.24
2018-06-04T11:12:21.188Z,61.08
2018-06-04T11:13:24.574Z,60.97
2018-06-04T11:14:27.959Z,60.77
2018-06-04T11:15:31.389Z,60.61
2018-06-04T11:16:34.799Z,60.73
2018-06-04T11:17:38.208Z,60.73
2018-06-04T11:18:41.583Z,60.69
2018-06-04T11:19:44.959Z,60.64
2018-06-04T11:20:48.623Z,60.62
2018-06-04T11:21:52.130Z,60.83
2018-06-04T11:22:55.549Z,60.73
2018-06-04T11:23:59.053Z,60.83
2018-06-04T11:25:02.495Z,60.96
2018-06-04T11:26:05.901Z,60.80
2018-06-04T11:27:09.308Z,60.75
2018-06-04T11:28:13.208Z,60.83
2018-06-04T11:29:16.635Z,60.81
2018-06-04T11:30:20.105Z,60.83
2018-06-04T11:31:23.566Z,60.82
2018-06-04T11:32:27.312Z,60.81
2018-06-04T11:33:30.861Z,60.65
2018-06-04T11:34:34.246Z,60.80
2018-06-04T11:35:37.654Z,60.71
2018-06-04T11:36:41.146Z,60.95
2018-06-04T11:37:44.609Z,60.88
2018-06-04T11:38:48.101Z,60.64
2018-06-04T11:39:51.508Z,60.81
2018-06-04T11:40:54.898Z,61.17
2018-06-04T11:41:58.393Z,60.86
2018-06-04T11:43:01.865Z,61.14
2018-06-04T11:44:05.687Z,60.92
2018-06-04T11:45:09.478Z,61.30
2018-06-04T11:46:12.859Z,60.81
2018-06-04T11:47:16.254Z,60.98
2018-06-04T11:48:19.654Z,60.87
2018-06-04T11:49:23.063Z,61.09
2018-06-04T11:50:26.596Z,61.13
2018-06-04T11:51:30.031Z,61.35
2018-06-04T11:52:33.458Z,61.47
2018-06-04T11:53:36.868Z,61.42
2018-06-04T11:54:40.282Z,61.63
2018-06-04T11:55:43.677Z,61.57
2018-06-04T11:56:47.113Z,61.52
2018-06-04T11:57:50.497Z,61.43
2018-06-04T11:58:53.902Z,61.43
2018-06-04T11:59:57.316Z,61.71
2018-06-04T12:01:00.690Z,61.43
2018-06-04T12:02:04.085Z,61.54
2018-06-04T12:03:07.505Z,61.69
2018-06-04T12:04:10.900Z,61.63
2018-06-04T12:05:14.379Z,61.88
2018-06-04T12:06:17.767Z,61.66
2018-06-04T12:07:21.158Z,61.82
2018-06-04T12:08:24.555Z,61.76
2018-06-04T12:09:27.952Z,61.65
2018-06-04T12:10:31.377Z,61.67
2018-06-04T12:11:34.766Z,61.56
2018-06-04T12:12:38.157Z,61.79
2018-06-04T12:13:41.534Z,61.71
2018-06-04T12:14:44.912Z,61.64
2018-06-04T12:15:48.359Z,61.70
2018-06-04T12:16:51.755Z,61.52
2018-06-04T12:17:55.165Z,61.90
2018-06-04T12:18:58.570Z,61.32
2018-06-04T12:20:01.982Z,62.05
2018-06-04T12:21:05.411Z,61.75
2018-06-04T12:22:08.827Z,61.52
2018-06-04T12:23:12.207Z,61.61
2018-06-04T12:24:15.672Z,61.54
2018-06-04T12:25:19.058Z,61.54
2018-06-04T12:26:22.468Z,61.42
2018-06-04T12:27:25.861Z,61.53
2018-06-04T12:28:29.225Z,61.31
2018-06-04T12:29:32.601Z,61.39
2018-06-04T12:30:36.004Z,61.20
2018-06-04T12:31:39.398Z,61.37
2018-06-04T12:32:42.788Z,61.53
2018-06-04T12:33:46.154Z,61.28
2018-06-04T12:34:49.548Z,61.45
2018-06-04T12:35:52.933Z,61.65
2018-06-04T12:36:56.319Z,61.46
2018-06-04T12:37:59.821Z,61.35
2018-06-04T12:39:03.304Z,61.23
2018-06-04T12:40:06.719Z,61.21
2018-06-04T12:41:10.106Z,61.03
2018-06-04T12:42:13.528Z,61.49
2018-06-04T12:43:16.940Z,61.34
2018-06-04T12:44:20.362Z,61.56
2018-06-04T12:45:23.793Z,61.17
2018-06-04T12:46:27.179Z,61.13
2018-06-04T12:47:30.550Z,61.12
2018-06-04T12:48:33.929Z,61.09
2018-06-04T12:49:37.667Z,61.18
2018-06-04T12:50:41.072Z,60.97
2018-06-04T12:51:44.479Z,61.07
2018-06-04T12:52:47.883Z,60.97
2018-06-04T12:53:51.316Z,60.96
2018-06-04T12:54:54.716Z,61.13
2018-06-04T12:55:58.114Z,61.13
2018-06-04T12:57:01.504Z,61.17
2018-06-04T12:58:04.932Z,61.05
2018-06-04T12:59:08.317Z,61.18
2018-06-04T13:00:11.722Z,61.34
2018-06-04T13:01:15.112Z,61.36
2018-06-04T13:02:18.508Z,61.32
2018-06-04T13:03:21.944Z,61.92
2018-06-04T13:04:25.382Z,61.53
2018-06-04T13:05:28.764Z,61.54
2018-06-04T13:06:32.164Z,61.78
2018-06-04T13:07:35.544Z,61.31
2018-06-04T13:08:38.953Z,61.10
2018-06-04T13:09:42.359Z,61.19
2018-06-04T13:10:45.754Z,61.40
2018-06-04T13:11:49.170Z,61.58
2018-06-04T13:12:52.575Z,61.75
2018-06-04T13:13:55.990Z,61.80
2018-06-04T13:14:59.420Z,61.56
2018-06-04T13:16:02.825Z,61.27
2018-06-04T13:17:06.234Z,61.64
2018-06-04T13:18:09.624Z,61.65
2018-06-04T13:19:13.040Z,61.65
2018-06-04T13:20:16.463Z,61.75
2018-06-04T13:21:19.854Z,61.90
2018-06-04T13:22:23.260Z,61.84
2018-06-04T13:23:26.652Z,61.77
2018-06-04T13:24:30.075Z,61.96
2018-06-04T13:25:33.503Z,61.70
2018-06-04T13:26:36.870Z,61.79
2018-06-04T13:27:40.284Z,61.85
2018-06-04T13:28:43.687Z,62.27
2018-06-04T13:29:47.101Z,62.13
2018-06-04T13:30:50.606Z,62.01
2018-06-04T13:31:53.996Z,62.03
2018-06-04T13:32:57.419Z,62.07
2018-06-04T13:34:00.794Z,62.50
2018-06-04T13:35:04.222Z,62.31
2018-06-04T13:36:07.625Z,62.02
2018-06-04T13:37:11.031Z,62.22